createdAt,value
2018-06-03T00:01:40.589Z,3.37
2018-06-03T00:04:06.815Z,3.60
2018-06-03T00:06:32.992Z,3.70
2018-06-03T00:08:59.574Z,3.23
2018-06-03T00:11:25.775Z,3.63
2018-06-03T00:13:52.722Z,2.77
2018-06-03T00:16:20.464Z,4.07
2018-06-03T00:28:31.761Z,3.43
2018-06-03T00:30:57.931Z,2.90
2018-06-03T00:33:24.124Z,2.80
2018-06-03T00:36:03.486Z,3.67
2018-06-03T00:38:30.166Z,3.70
2018-06-03T00:40:57.081Z,3.10
2018-06-03T00:43:23.328Z,2.80
2018-06-03T00:45:49.512Z,3.50
2018-06-03T00:48:16.450Z,3.37
2018-06-03T00:50:43.362Z,3.73
2018-06-03T00:53:10.306Z,3.20
2018-06-03T00:55:37.362Z,3.70
2018-06-03T00:58:05.065Z,4.97
2018-06-03T01:00:31.267Z,4.13
2018-06-03T01:02:57.493Z,4.10
2018-06-03T01:05:26.098Z,4.00
2018-06-03T01:07:52.286Z,3.33
2018-06-03T01:10:19.994Z,2.53
2018-06-03T01:12:47.247Z,3.03
2018-06-03T01:15:14.345Z,3.00
2018-06-03T01:17:40.543Z,3.10
2018-06-03T01:20:06.802Z,3.07
2018-06-03T01:22:33.797Z,3.47
2018-06-03T01:24:59.988Z,3.60
2018-06-03T01:27:26.975Z,4.17
2018-06-03T01:29:53.562Z,3.07
2018-06-03T01:32:20.141Z,2.57
2018-06-03T01:34:46.325Z,2.70
2018-06-03T01:37:12.537Z,3.10
2018-06-03T01:39:38.723Z,2.93
2018-06-03T01:42:05.332Z,3.07
2018-06-03T01:44:32.254Z,2.67
2018-06-03T01:46:59.956Z,3.30
2018-06-03T01:49:26.214Z,3.10
2018-06-03T01:51:52.415Z,2.60
2018-06-03T01:54:18.635Z,3.17
2018-06-03T01:56:45.625Z,2.53
2018-06-03T01:59:15.739Z,3.83
2018-06-03T02:01:41.933Z,2.90
2018-06-03T02:04:10.398Z,2.53
2018-06-03T02:06:36.988Z,4.13
2018-06-03T02:09:04.311Z,3.97
2018-06-03T02:11:30.869Z,4.00
2018-06-03T02:13:58.217Z,5.13
2018-06-03T02:16:24.356Z,3.67
2018-06-03T02:18:50.902Z,3.20
2018-06-03T02:21:18.098Z,3.00
2018-06-03T02:23:48.613Z,3.10
2018-06-03T02:26:14.818Z,2.47
2018-06-03T02:29:23.221Z,2.83
2018-06-03T02:31:50.750Z,2.93
2018-06-03T02:34:18.273Z,2.37
2018-06-03T02:36:45.944Z,2.80
2018-06-03T02:39:13.501Z,2.60
2018-06-03T02:41:41.002Z,2.40
2018-06-03T02:44:08.535Z,2.40
2018-06-03T02:46:36.034Z,2.47
2018-06-03T02:49:05.537Z,2.90
2018-06-03T02:51:34.044Z,2.43
2018-06-03T02:54:01.936Z,2.47
2018-06-03T02:56:29.758Z,2.90
2018-06-03T02:58:57.273Z,2.50
2018-06-03T03:01:24.886Z,3.50
2018-06-03T03:03:52.323Z,4.30
2018-06-03T03:06:19.894Z,2.70
2018-06-03T03:08:47.460Z,3.50
2018-06-03T03:11:15.400Z,4.73
2018-06-03T03:13:43.935Z,3.40
2018-06-03T03:16:11.458Z,4.30
2018-06-03T03:18:38.964Z,3.87
2018-06-03T03:21:09.641Z,3.10
2018-06-03T03:23:37.166Z,3.83
2018-06-03T03:26:05.897Z,3.20
2018-06-03T03:28:33.489Z,2.77
2018-06-03T03:31:01.056Z,3.20
2018-06-03T03:33:28.610Z,3.10
2018-06-03T03:35:57.950Z,3.60
2018-06-03T03:38:28.977Z,2.80
2018-06-03T03:40:56.641Z,2.57
2018-06-03T03:43:24.801Z,3.20
2018-06-03T03:45:53.584Z,4.40
2018-06-03T03:48:21.013Z,3.07
2018-06-03T03:50:49.612Z,5.17
2018-06-03T03:53:17.421Z,4.47
2018-06-03T03:55:44.860Z,5.10
2018-06-03T03:58:12.374Z,3.97
2018-06-03T04:00:39.886Z,3.90
2018-06-03T04:03:07.535Z,3.67
2018-06-03T04:05:34.984Z,4.03
2018-06-03T04:08:02.569Z,3.43
2018-06-03T04:10:30.960Z,3.97
2018-06-03T04:12:59.072Z,3.27
2018-06-03T04:15:27.561Z,3.60
2018-06-03T04:17:57.176Z,3.50
2018-06-03T04:20:24.669Z,3.83
2018-06-03T04:22:52.601Z,3.90
2018-06-03T04:25:22.106Z,3.50
2018-06-03T04:27:49.938Z,3.43
2018-06-03T04:30:17.334Z,3.93
2018-06-03T04:32:44.814Z,4.03
2018-06-03T04:35:12.385Z,2.90
2018-06-03T04:47:24.947Z,3.70
2018-06-03T04:49:52.429Z,3.90
2018-06-03T04:52:19.949Z,4.10
2018-06-03T04:54:47.870Z,3.53
2018-06-03T04:57:15.452Z,3.13
2018-06-03T04:59:44.950Z,3.80
2018-06-03T05:02:12.518Z,3.50
2018-06-03T05:04:40.177Z,4.13
2018-06-03T05:07:08.839Z,3.47
2018-06-03T05:09:36.397Z,3.30
2018-06-03T05:12:03.914Z,3.67
2018-06-03T05:14:34.528Z,3.40
2018-06-03T05:17:02.082Z,3.70
2018-06-03T05:19:29.672Z,3.80
2018-06-03T05:21:57.173Z,5.23
2018-06-03T05:24:24.699Z,3.30
2018-06-03T05:26:52.171Z,3.50
2018-06-03T05:29:21.341Z,3.87
2018-06-03T05:31:48.913Z,3.00
2018-06-03T05:34:16.464Z,3.70
2018-06-03T05:36:43.981Z,3.67
2018-06-03T05:39:13.012Z,3.77
2018-06-03T05:41:40.482Z,3.60
2018-06-03T05:44:08.125Z,4.30
2018-06-03T05:46:35.564Z,3.63
2018-06-03T05:49:03.224Z,3.60
2018-06-03T05:51:30.714Z,4.23
2018-06-03T05:53:58.160Z,4.73
2018-06-03T05:56:25.644Z,6.63
2018-06-03T05:58:53.079Z,5.40
2018-06-03T06:01:20.516Z,4.93
2018-06-03T06:03:48.092Z,4.70
2018-06-03T06:06:15.585Z,4.70
2018-06-03T06:08:43.154Z,4.47
2018-06-03T06:11:10.571Z,4.03
2018-06-03T06:13:38.104Z,4.50
2018-06-03T06:16:05.951Z,3.53
2018-06-03T06:18:33.452Z,3.03
2018-06-03T06:21:07.665Z,5.80
2018-06-03T06:23:35.195Z,3.70
2018-06-03T06:26:03.235Z,4.50
2018-06-03T06:28:30.754Z,3.40
2018-06-03T06:30:58.300Z,3.57
2018-06-03T06:33:25.801Z,3.10
2018-06-03T06:35:53.521Z,2.93
2018-06-03T06:38:21.317Z,2.93
2018-06-03T06:40:48.804Z,3.50
2018-06-03T06:43:16.379Z,3.33
2018-06-03T06:45:43.839Z,4.80
2018-06-03T06:48:11.839Z,3.23
2018-06-03T06:50:39.392Z,3.80
2018-06-03T06:53:06.937Z,3.43
2018-06-03T06:55:34.518Z,2.67
2018-06-03T06:58:01.981Z,3.60
2018-06-03T07:00:30.832Z,2.30
2018-06-03T07:02:58.351Z,2.73
2018-06-03T07:05:30.604Z,3.20
2018-06-03T07:07:59.096Z,3.00
2018-06-03T07:10:26.545Z,2.83
2018-06-03T07:12:54.565Z,3.10
2018-06-03T07:15:22.141Z,2.77
2018-06-03T07:27:36.305Z,2.23
2018-06-03T07:30:03.894Z,2.20
2018-06-03T07:32:31.376Z,3.33
2018-06-03T07:34:58.951Z,3.17
2018-06-03T07:37:27.898Z,4.13
2018-06-03T07:39:55.860Z,4.23
2018-06-03T07:42:27.032Z,3.13
2018-06-03T07:44:54.465Z,3.63
2018-06-03T07:47:23.133Z,4.80
2018-06-03T07:49:51.443Z,3.70
2018-06-03T07:52:20.478Z,3.70
2018-06-03T07:54:47.930Z,3.13
2018-06-03T07:57:15.786Z,4.60
2018-06-03T07:59:43.313Z,2.70
2018-06-03T08:02:10.862Z,3.50
2018-06-03T08:04:38.439Z,4.60
2018-06-03T08:07:06.402Z,3.50
2018-06-03T08:09:36.288Z,3.90
2018-06-03T08:12:04.389Z,3.90
2018-06-03T08:14:33.601Z,2.97
2018-06-03T08:17:01.210Z,3.50
2018-06-03T08:19:32.607Z,2.47
2018-06-03T08:22:01.803Z,3.50
2018-06-03T08:24:29.427Z,2.43
2018-06-03T08:26:57.302Z,2.43
2018-06-03T08:32:00.005Z,2.40
2018-06-03T08:34:28.139Z,2.50
2018-06-03T08:36:58.885Z,2.23
2018-06-03T08:39:26.497Z,3.00
2018-06-03T08:41:54.035Z,3.07
2018-06-03T08:44:22.123Z,2.23
2018-06-03T08:46:50.656Z,2.73
2018-06-03T08:49:18.228Z,2.97
2018-06-03T09:01:35.995Z,2.63
2018-06-03T09:04:04.433Z,2.90
2018-06-03T09:06:31.984Z,2.57
2018-06-03T09:09:00.056Z,3.10
2018-06-03T09:11:27.623Z,2.40
2018-06-03T09:13:56.195Z,3.27
2018-06-03T09:16:24.186Z,2.60
2018-06-03T09:18:52.464Z,2.27
2018-06-03T09:21:21.939Z,2.47
2018-06-03T09:23:51.392Z,2.17
2018-06-03T09:28:53.830Z,2.90
2018-06-03T09:31:22.046Z,2.73
2018-06-03T09:33:49.582Z,2.20
2018-06-03T09:36:17.163Z,3.53
2018-06-03T09:38:44.681Z,3.10
2018-06-03T09:41:12.356Z,3.13
2018-06-03T09:53:25.084Z,2.83
2018-06-03T09:55:52.657Z,3.30
2018-06-03T09:58:20.206Z,3.07
2018-06-03T10:00:47.773Z,3.60
2018-06-03T10:03:15.633Z,2.93
2018-06-03T10:05:44.541Z,3.60
2018-06-03T10:08:11.979Z,3.63
2018-06-03T10:10:39.445Z,2.40
2018-06-03T10:13:07.429Z,2.30
2018-06-03T10:15:35.632Z,2.87
2018-06-03T10:18:03.272Z,2.20
2018-06-03T10:20:30.860Z,2.40
2018-06-03T10:22:58.306Z,2.00
2018-06-03T10:25:26.755Z,2.20
2018-06-03T10:27:58.109Z,2.50
2018-06-03T10:30:25.733Z,2.63
2018-06-03T10:32:58.197Z,4.03
2018-06-03T10:35:25.803Z,2.87
2018-06-03T10:37:54.447Z,2.50
2018-06-03T10:40:23.515Z,2.00
2018-06-03T10:42:52.889Z,2.67
2018-06-03T10:45:21.524Z,3.03
2018-06-03T10:47:53.002Z,3.30
2018-06-03T10:50:21.987Z,1.87
2018-06-03T10:52:49.529Z,2.07
2018-06-03T10:55:19.681Z,3.07
2018-06-03T10:57:47.301Z,2.40
2018-06-03T11:00:14.897Z,3.00
2018-06-03T11:02:43.392Z,2.50
2018-06-03T11:14:56.653Z,2.47
2018-06-03T11:17:24.804Z,3.27
2018-06-03T11:19:52.331Z,2.50
2018-06-03T11:22:19.943Z,4.00
2018-06-03T11:24:48.929Z,3.50
2018-06-03T11:27:17.462Z,4.50
2018-06-03T11:29:45.009Z,2.20
2018-06-03T11:32:12.734Z,2.67
2018-06-03T11:34:41.377Z,3.90
2018-06-03T11:37:09.035Z,2.30
2018-06-03T11:39:37.443Z,2.67
2018-06-03T11:42:05.508Z,3.37
2018-06-03T11:44:32.947Z,3.90
2018-06-03T11:47:00.757Z,2.90
2018-06-03T11:49:28.197Z,2.20
2018-06-03T11:51:57.316Z,2.23
2018-06-03T11:54:25.945Z,2.10
2018-06-03T11:57:00.070Z,2.50
2018-06-03T11:59:47.026Z,2.40
2018-06-03T12:02:17.414Z,2.53
2018-06-03T12:04:45.209Z,2.23
2018-06-03T12:07:14.783Z,2.37
2018-06-03T12:09:42.419Z,2.00
2018-06-03T12:12:10.000Z,2.30
2018-06-03T12:14:37.550Z,2.40
2018-06-03T12:17:05.407Z,2.40
2018-06-03T12:19:33.582Z,2.07
2018-06-03T12:22:09.293Z,2.40
2018-06-03T12:24:36.888Z,2.70
2018-06-03T12:27:04.946Z,2.20
2018-06-03T12:29:32.480Z,2.53
2018-06-03T12:32:00.347Z,2.33
2018-06-03T12:34:28.309Z,2.60
2018-06-03T12:36:55.874Z,2.43
2018-06-03T12:39:23.505Z,1.73
2018-06-03T12:41:52.202Z,3.00
2018-06-03T12:44:19.823Z,1.73
2018-06-03T12:46:47.423Z,2.30
2018-06-03T12:49:15.745Z,2.97
2018-06-03T13:01:28.384Z,2.23
2018-06-03T13:03:55.956Z,2.60
2018-06-03T13:06:23.846Z,2.30
2018-06-03T13:08:51.267Z,3.23
2018-06-03T13:11:18.789Z,2.73
2018-06-03T13:13:48.380Z,2.87
2018-06-03T13:16:16.065Z,3.33
2018-06-03T13:18:43.655Z,2.83
2018-06-03T13:21:11.236Z,3.07
2018-06-03T13:23:39.507Z,2.50
2018-06-03T13:26:07.716Z,2.40
2018-06-03T13:28:38.599Z,2.90
2018-06-03T13:31:06.308Z,2.47
2018-06-03T13:36:07.764Z,3.60
2018-06-03T13:38:38.992Z,2.07
2018-06-03T13:41:07.556Z,3.80
2018-06-03T13:46:09.663Z,5.00
2018-06-03T13:48:37.262Z,3.17
2018-06-03T13:51:04.955Z,2.80
2018-06-03T13:53:32.900Z,3.27
2018-06-03T13:56:01.673Z,4.37
2018-06-03T13:58:31.335Z,3.33
2018-06-03T14:00:58.886Z,4.27
2018-06-03T14:03:26.493Z,3.57
2018-06-03T14:05:54.140Z,3.60
2018-06-03T14:08:21.732Z,3.57
2018-06-03T14:10:52.447Z,3.30
2018-06-03T14:13:20.234Z,2.40
2018-06-03T14:15:48.749Z,3.70
2018-06-03T14:18:17.527Z,2.53
2018-06-03T14:20:45.769Z,2.50
2018-06-03T14:23:14.002Z,2.60
2018-06-03T14:25:42.224Z,3.20
2018-06-03T14:28:09.790Z,2.70
2018-06-03T14:30:37.712Z,2.50
2018-06-03T14:33:05.587Z,2.60
2018-06-03T14:35:33.427Z,2.57
2018-06-03T14:38:00.983Z,1.90
2018-06-03T14:40:32.841Z,2.20
2018-06-03T14:43:00.256Z,2.47
2018-06-03T14:45:27.829Z,2.67
2018-06-03T14:47:56.124Z,2.33
2018-06-03T14:50:23.723Z,2.40
2018-06-03T14:52:51.762Z,2.53
2018-06-03T14:55:19.611Z,2.17
2018-06-03T15:01:21.880Z,2.77
2018-06-03T15:03:50.469Z,3.37
2018-06-03T15:06:18.531Z,2.67
2018-06-03T15:08:46.902Z,2.53
2018-06-03T15:11:16.111Z,2.93
2018-06-03T15:13:43.718Z,2.07
2018-06-03T15:16:11.588Z,2.03
2018-06-03T15:18:39.156Z,2.20
2018-06-03T15:21:06.879Z,3.17
2018-06-03T15:23:35.264Z,2.50
2018-06-03T15:26:02.821Z,3.13
2018-06-03T15:28:30.378Z,2.67
2018-06-03T15:31:01.288Z,3.80
2018-06-03T15:33:28.723Z,2.53
2018-06-03T15:35:56.259Z,3.13
2018-06-03T15:38:24.206Z,2.73
2018-06-03T15:40:52.058Z,2.10
2018-06-03T15:43:20.242Z,2.83
2018-06-03T15:45:47.743Z,3.20
2018-06-03T15:48:15.615Z,3.17
2018-06-03T15:50:44.044Z,2.30
2018-06-03T15:53:13.159Z,2.23
2018-06-03T15:55:40.730Z,2.50
2018-06-03T15:58:08.293Z,2.00
2018-06-03T16:00:35.922Z,1.80
2018-06-03T16:03:09.095Z,2.70
2018-06-03T16:05:36.617Z,2.43
2018-06-03T16:08:04.594Z,2.80
2018-06-03T16:10:32.722Z,3.30
2018-06-03T16:13:00.430Z,2.63
2018-06-03T16:15:29.001Z,2.30
2018-06-03T16:17:56.545Z,2.80
2018-06-03T16:20:24.826Z,2.83
2018-06-03T16:22:53.720Z,2.23
2018-06-03T16:25:21.189Z,2.93
2018-06-03T16:27:49.050Z,2.40
2018-06-03T16:30:17.228Z,2.43
2018-06-03T16:32:44.798Z,2.07
2018-06-03T16:35:12.382Z,2.50
2018-06-03T16:37:40.087Z,2.17
2018-06-03T16:40:08.076Z,3.20
2018-06-03T16:42:35.643Z,2.57
2018-06-03T16:45:04.600Z,2.60
2018-06-03T16:47:33.418Z,2.63
2018-06-03T16:50:02.037Z,2.80
2018-06-03T16:52:34.576Z,3.07
2018-06-03T16:55:04.178Z,2.40
2018-06-03T16:57:32.917Z,2.27
2018-06-03T17:00:04.895Z,2.23
2018-06-03T17:02:32.449Z,2.30
2018-06-03T17:05:00.928Z,2.30
2018-06-03T17:07:28.556Z,2.40
2018-06-03T17:09:56.629Z,3.10
2018-06-03T17:12:24.728Z,2.33
2018-06-03T17:14:53.334Z,3.03
2018-06-03T17:17:21.401Z,2.37
2018-06-03T17:19:49.819Z,2.60
2018-06-03T17:22:17.336Z,2.73
2018-06-03T17:24:45.519Z,2.73
2018-06-03T17:27:13.049Z,2.70
2018-06-03T17:29:40.649Z,2.60
2018-06-03T17:32:09.525Z,2.80
2018-06-03T17:34:37.079Z,2.87
2018-06-03T17:37:04.723Z,2.47
2018-06-03T17:39:32.467Z,2.10
2018-06-03T17:42:00.115Z,2.67
2018-06-03T17:44:27.707Z,2.80
2018-06-03T17:46:55.302Z,2.30
2018-06-03T17:49:22.961Z,2.27
2018-06-03T17:51:50.883Z,3.07
2018-06-03T17:54:18.437Z,2.60
2018-06-03T18:06:32.101Z,4.30
2018-06-03T18:09:00.273Z,4.17
2018-06-03T18:11:27.831Z,2.90
2018-06-03T18:13:56.040Z,4.30
2018-06-03T18:16:23.664Z,4.30
2018-06-03T18:18:51.237Z,4.20
2018-06-03T18:21:18.778Z,3.90
2018-06-03T18:23:46.416Z,3.10
2018-06-03T18:26:14.299Z,3.33
2018-06-03T18:28:42.018Z,2.70
2018-06-03T18:31:11.559Z,2.70
2018-06-03T18:33:42.656Z,3.20
2018-06-03T18:36:10.512Z,3.93
2018-06-03T18:38:41.182Z,3.37
2018-06-03T18:41:08.880Z,4.00
2018-06-03T18:46:10.864Z,4.10
2018-06-03T18:48:39.257Z,3.40
2018-06-03T18:51:06.829Z,3.10
2018-06-03T18:53:34.731Z,3.10
2018-06-03T18:56:02.357Z,4.40
2018-06-03T18:58:30.272Z,5.10
2018-06-03T19:00:58.453Z,3.87
2018-06-03T19:03:26.038Z,5.57
2018-06-03T19:05:53.602Z,5.10
2018-06-03T19:08:21.123Z,4.40
2018-06-03T19:10:48.686Z,4.20
2018-06-03T19:13:16.382Z,4.03
2018-06-03T19:15:44.109Z,3.60
2018-06-03T19:18:11.788Z,3.53
2018-06-03T19:20:40.113Z,3.37
2018-06-03T19:25:41.365Z,4.50
2018-06-03T19:28:09.065Z,3.77
2018-06-03T19:30:36.563Z,3.13
2018-06-03T19:33:04.249Z,3.67
2018-06-03T19:35:31.932Z,3.57
2018-06-03T19:37:59.493Z,4.03
2018-06-03T19:40:29.283Z,3.60
2018-06-03T19:42:56.858Z,5.50
2018-06-03T19:45:24.537Z,4.40
2018-06-03T19:47:53.094Z,4.87
2018-06-03T19:50:22.650Z,5.27
2018-06-03T19:52:52.573Z,4.13
2018-06-03T19:55:20.108Z,3.97
2018-06-03T19:57:47.723Z,3.83
2018-06-03T20:00:15.353Z,4.90
2018-06-03T20:02:42.905Z,3.40
2018-06-03T20:05:10.605Z,3.73
2018-06-03T20:07:38.340Z,3.47
2018-06-03T20:10:07.131Z,3.60
2018-06-03T20:12:35.734Z,3.57
2018-06-03T20:15:03.365Z,3.60
2018-06-03T20:17:33.981Z,3.63
2018-06-03T20:20:01.999Z,4.00
2018-06-03T20:22:32.582Z,3.80
2018-06-03T20:25:00.268Z,4.67
2018-06-03T20:27:28.011Z,3.03
2018-06-03T21:24:03.088Z,3.70
2018-06-03T21:26:33.464Z,4.33
2018-06-03T21:29:07.125Z,3.80
2018-06-03T21:31:36.358Z,3.93
2018-06-03T21:34:06.596Z,4.17
2018-06-03T21:36:34.825Z,3.70
2018-06-03T21:39:09.828Z,3.50
2018-06-03T21:41:39.139Z,3.90
2018-06-03T21:44:13.429Z,4.83
2018-06-03T21:46:43.668Z,4.37
2018-06-03T21:49:14.314Z,5.27
2018-06-03T21:51:42.244Z,4.33
2018-06-03T21:54:10.446Z,5.03
2018-06-03T21:56:38.638Z,4.83
2018-06-03T21:59:06.690Z,5.43
2018-06-03T22:01:35.940Z,4.43
2018-06-03T22:04:06.255Z,4.53
2018-06-03T22:06:34.728Z,5.80
2018-06-03T22:09:03.152Z,6.60
2018-06-03T22:11:32.188Z,6.07
2018-06-03T22:14:01.395Z,5.03
2018-06-03T22:16:31.491Z,5.00
2018-06-03T22:18:59.901Z,5.33
2018-06-03T22:21:28.984Z,4.90
2018-06-03T22:23:57.916Z,5.60
2018-06-03T22:26:27.090Z,5.00
2018-06-03T22:28:56.475Z,5.20
2018-06-03T22:31:28.695Z,6.33
2018-06-03T22:33:57.544Z,5.63
2018-06-03T22:36:27.353Z,5.80
2018-06-03T22:38:56.541Z,6.87
2018-06-03T22:41:25.325Z,6.30
2018-06-03T22:43:54.817Z,6.30
2018-06-03T22:46:23.036Z,5.27
2018-06-03T22:48:51.559Z,6.53
2018-06-03T22:51:23.448Z,6.17
2018-06-03T22:53:52.040Z,6.10
2018-06-03T22:56:20.472Z,6.60
2018-06-03T22:58:52.581Z,6.60
2018-06-03T23:01:20.436Z,6.33
2018-06-03T23:03:49.141Z,6.30
2018-06-03T23:06:16.988Z,5.97
2018-06-03T23:08:46.191Z,7.40
2018-06-03T23:11:15.595Z,6.27
2018-06-03T23:13:43.890Z,6.17
2018-06-03T23:16:12.726Z,7.03
2018-06-03T23:18:41.660Z,7.00
2018-06-03T23:21:11.625Z,6.70
2018-06-03T23:23:39.805Z,7.00
2018-06-03T23:26:08.504Z,7.00
2018-06-03T23:28:41.152Z,6.63
2018-06-03T23:31:09.577Z,7.30
2018-06-03T23:33:39.312Z,6.37
2018-06-03T23:36:10.198Z,6.90
2018-06-03T23:38:38.585Z,8.03
2018-06-03T23:41:06.690Z,7.07
2018-06-03T23:43:36.364Z,8.77
2018-06-03T23:46:05.583Z,8.67
2018-06-03T23:48:38.263Z,9.37
2018-06-03T23:51:06.639Z,8.47
2018-06-03T23:53:35.080Z,8.13
